Terminal Aerodrome Forecast
Issued by NWS

Home | Current Version | Previous Version | Text Only | Print | Product List | Glossary Off
Versions: 1 2 3 4 5 6 7 8 9 10 11 12 13 14 15 16 17 18 19 20 21 22 23 24 25 26

000
FTUS43 KBIS 251951 AAA
TAFMOT
TAF AMD
KMOT 251951Z 2520/2618 31006KT P6SM BKN015
      TEMPO 2520/2524 2SM -SN
     FM260000 03007KT 1 1/2SM -SN OVC010
     FM260400 36007KT 4SM -SN BKN025
     FM260700 34006KT P6SM BKN035
     FM261200 23005KT P6SM BKN060=

USA.gov is the U.S. government's official web portal to all federal, state and local government web resources and services.